Wiscasset, ME

9:10 PM EDT on October 24, 2014 (GMT -0400)
Acorn Road | Change Station
CLOSE
Current Station
Personal Weather Station
Location: Wiscasset, ME
Elevation: 144 ft
Nearby Weather Stations

Elev 144 ft 44.00 °N, 69.70 °W | Updated 5 seconds ago

Overcast
Overcast
46.0 °F
Feels Like 46 °F
N
0.0
Wind Variable Wind from NW
Gusts 4.0 mph

Today
High -- | Low -- °F
--% Chance of Precip.
Yesterday
High -- | Low -- °F
Precip. -- in
7:04 AM 5:40 PM
New Moon, 1% visible
Pressure 29.71 in
Visibility 10.0 miles
Clouds Overcast 2300 ft
Windchill 46 °F
Dew Point 44 °F
Humidity 91%
Rainfall 0.15 in
Snow Depth Not available.
UV 0 out of 12
Pollen .10 out of 12
Air Quality Not available.
Flu Activity Sporadic
METAR KIWI 250053Z AUTO 00000KT 10SM OVC023 09/06 A2971 RMK AO2 RAE2356 SLP060 P0000 T00890061

More Conditions Fewer Conditions

Pressure 29.71 in
Visibility 10.0 miles
Clouds Overcast 2300 ft
Windchill 46 °F
Dew Point 44 °F
Humidity 91%
Rainfall 0.15 in
Snow Depth Not available.
UV 0 out of 12
Pollen .10 out of 12
Air Quality Not available.
Flu Activity Sporadic
METAR KIWI 250053Z AUTO 00000KT 10SM OVC023 09/06 A2971 RMK AO2 RAE2356 SLP060 P0000 T00890061

More Conditions Fewer Conditions

10-Day Weather Forecast

Almanac

Astronomy

Oct. 24, 2014 Rise Set
Actual Time 7:04 AM EDT 5:40 PM EDT
Civil Twilight 6:35 AM EDT 6:10 PM EDT
Nautical Twilight 6:01 AM EDT 6:43 PM EDT
Astronomical Twilight 5:28 AM EDT 7:17 PM EDT
Moon 7:41 AM EDT (10/24) 6:16 PM EDT (10/24)
Length of Visible Light 11h 34m
Length of Day
10h 35m
Tomorrow will be 2m 50s shorter.
New Moon, 1% of the Moon is Illuminated
Today
New Moon
Oct 30
First Quarter
Nov 6
Full
Nov 14
Last Quarter
Nov 22
New

Today's Extremes

State Highs State Lows

Community

WunderPhotos

Upload Photos

1,764,741 photos uploaded!

WunderBlogs® & News

Nearby

Air Quality

  Air Quality AQ Index Pollutant
Friday Good
OZONE
Friday Good
PM2.5
Saturday Good
OZONE
Saturday Good
PM2.5
Sunday Good
OZONE
Sunday Good
PM2.5
Monday Good
OZONE
Monday Good
PM2.5
Tuesday Good
OZONE
Tuesday Good
PM2.5

Snow Depth

Station Depth Elevation
No new snow has been reported.

Earthquake Activity

City Distance Mag. Time & Date
No recent earthquake activity has been reported nearby.
Minimum magnitude displayed is 2.5.

Coastal Water Temperatures

Place Temperature
Portland, ME 54.0 °F
Wells, ME 51.1 °F

Nearby Weather Stations